Maersk Shanghai — D5LD2 — position and weather

sailwx.info

Track history (hours):
 
Tides and Currents Weather Stations Pressure Air Temp Water Temp Dewpoint Dewpoint Depression Visibility Wind Speed Wind Dir Waves Ship Positions

Maersk Shanghai

Last reported at 2017-Dec-07 17:10 UTC. Time now 2017-Dec-11 04:22 UTC.
Position N 26°14' W 079°14'.

Length 324 m; draft 10.9 m.

Type: Cargo ship. MMSI: 636017473.

Date/timePositionNaut miles runAvg speedWind from/ knotsBaromVisibWave heightAir tempDewpointWater temp
2017-Dec-07 17:10N 26°14' W 079°14'316.9
2017-Dec-07 17:00N 26°13' W 079°16'816.8
2017-Dec-07 16:30N 26°08' W 079°24'817.0
2017-Dec-07 16:00N 26°04' W 079°33'817.0
2017-Dec-07 15:30N 25°59' W 079°41'917.1
2017-Dec-07 15:00N 25°55' W 079°49'917.6
2017-Dec-07 14:31N 25°50' W 079°57'815.5
2017-Dec-07 14:00N 25°46' W 080°04'4 7.6
2017-Dec-07 13:30N 25°46' W 080°09'1 1.4
2017-Dec-07 12:58N 25°46' W 080°09'0 0.0
2017-Dec-07 12:28N 25°46' W 080°09'0 0.0
2017-Dec-07 11:58N 25°46' W 080°09'0 0.0
2017-Dec-07 11:28N 25°46' W 080°09'0 0.0
2017-Dec-07 10:55N 25°46' W 080°09'0 0.0
2017-Dec-07 10:28N 25°46' W 080°09'0 0.0
2017-Dec-07 09:58N 25°46' W 080°09'0 0.0
2017-Dec-07 09:28N 25°46' W 080°09'0 0.0
2017-Dec-07 08:58N 25°46' W 080°09'0 0.0
2017-Dec-07 08:28N 25°46' W 080°09'0 0.0
2017-Dec-07 07:58N 25°46' W 080°09'0 0.0
2017-Dec-07 07:28N 25°46' W 080°09'0 0.0
2017-Dec-07 06:58N 25°46' W 080°09'0 0.0
2017-Dec-07 06:25N 25°46' W 080°09'0 0.0
2017-Dec-07 05:49N 25°46' W 080°09'0 0.0
2017-Dec-07 05:28N 25°46' W 080°09'0 0.0
2017-Dec-07 04:52N 25°46' W 080°09'0 0.0
2017-Dec-07 04:28N 25°46' W 080°09'0 0.0
2017-Dec-07 03:58N 25°46' W 080°09'0 0.0
2017-Dec-07 03:22N 25°46' W 080°09'0 0.0
2017-Dec-07 02:58N 25°46' W 080°09'0 0.0
2017-Dec-07 02:28N 25°46' W 080°09'0 0.0
2017-Dec-07 01:58N 25°46' W 080°09'0 0.0
2017-Dec-07 01:28N 25°46' W 080°09'0 0.0
2017-Dec-07 00:55N 25°46' W 080°09'0 0.0
2017-Dec-07 00:25N 25°46' W 080°09'0 0.0
2017-Dec-06 23:55N 25°46' W 080°09'0 0.0
2017-Dec-06 23:28N 25°46' W 080°09'0 0.0
2017-Dec-06 22:58N 25°46' W 080°09'0 1.0
2017-Dec-06 22:30N 25°46' W 080°10'1 1.9
2017-Dec-06 22:00N 25°46' W 080°09'3 6.6
2017-Dec-06 21:30N 25°46' W 080°05'3 6.3
2017-Dec-06 21:01N 25°46' W 080°02'  
2017-Dec-04 10:23N 32°08' W 081°08'0 0.1
2017-Dec-04 09:59N 32°08' W 081°08'0 0.0
2017-Dec-04 09:29N 32°08' W 081°08'0 0.0
2017-Dec-04 08:59N 32°08' W 081°08'0 0.0
2017-Dec-04 08:29N 32°08' W 081°08'0 0.0
2017-Dec-04 07:59N 32°08' W 081°08'0 0.0
2017-Dec-04 07:29N 32°08' W 081°08'0 0.0
2017-Dec-04 06:53N 32°08' W 081°08'0 0.0
2017-Dec-04 06:29N 32°08' W 081°08'0 0.0
2017-Dec-04 05:53N 32°08' W 081°08'0 0.0
2017-Dec-04 05:23N 32°08' W 081°08'0 0.0
2017-Dec-04 04:59N 32°08' W 081°08'0 0.0
2017-Dec-04 04:29N 32°08' W 081°08'0 0.0
2017-Dec-04 03:59N 32°08' W 081°08'0 0.0
2017-Dec-04 03:29N 32°08' W 081°08'0 0.0
2017-Dec-04 02:53N 32°08' W 081°08'0 0.0
2017-Dec-04 02:29N 32°08' W 081°08'0 0.0
2017-Dec-04 01:59N 32°08' W 081°08'0 0.0
2017-Dec-04 01:11N 32°08' W 081°08'0 0.1
2017-Dec-04 00:59N 32°08' W 081°08'0 0.0
2017-Dec-04 00:23N 32°08' W 081°08'0 0.0
2017-Dec-03 23:11N 32°08' W 081°08'0 0.0
2017-Dec-03 22:59N 32°08' W 081°08'0 0.1
2017-Dec-03 22:30N 32°08' W 081°08'2 3.9
2017-Dec-03 22:00N 32°06' W 081°07'3 6.7
2017-Dec-03 21:30N 32°05' W 081°03'4 7.5
2017-Dec-03 21:00N 32°05' W 080°59'611.2
2017-Dec-03 20:29N 32°02' W 080°53'612.7
2017-Dec-03 20:00N 31°59' W 080°47'612.0
2017-Dec-03 19:30N 31°57' W 080°40'4 7.9
2017-Dec-03 19:00N 31°57' W 080°36'4 8.0
2017-Dec-03 18:30N 31°57' W 080°31'2 3.4
2017-Dec-03 18:00N 31°56' W 080°30'0 0.0
2017-Dec-03 16:48N 31°56' W 080°30'0 0.0
2017-Dec-03 16:24N 31°56' W 080°30'0 0.0
2017-Dec-03 15:48N 31°56' W 080°30'0 0.0
2017-Dec-03 15:24N 31°56' W 080°30'0 0.0
2017-Dec-03 15:00N 31°56' W 080°30'0 0.0
2017-Dec-03 14:18N 31°56' W 080°30'0 0.0
2017-Dec-03 14:00N 31°56' W 080°30'0 0.0
2017-Dec-03 13:30N 31°56' W 080°30'0 0.1
2017-Dec-03 12:48N 31°56' W 080°30'0 0.9
2017-Dec-03 12:30N 31°55' W 080°29'3 7.1
2017-Dec-03 12:00N 31°56' W 080°25'5 9.3
2017-Dec-03 11:30N 31°58' W 080°20'1012.5
2017-Dec-03 10:41N 32°04' W 080°10'48 2.1
2017-Dec-02 11:14N 32°50' W 079°54'25113.1
2017-Dec-01 16:09N 34°46' W 075°26'816.2
2017-Dec-01 15:40N 34°52' W 075°20'316.2
2017-Dec-01 15:30N 34°54' W 075°18'10214.7
2017-Dec-01 08:34N 36°36' W 075°31'116.7
2017-Dec-01 08:30N 36°37' W 075°32'1215.2
2017-Dec-01 07:43N 36°46' W 075°41'2 9.7
2017-Dec-01 07:30N 36°47' W 075°43'5 9.7
2017-Dec-01 07:01N 36°50' W 075°48'5 9.7
2017-Dec-01 06:30N 36°53' W 075°53'5 9.7
2017-Dec-01 06:00N 36°56' W 075°58'611.1
2017-Dec-01 05:31N 36°58' W 076°04'815.0
2017-Dec-01 04:59N 37°00' W 076°14'612.0
2017-Dec-01 04:29N 36°57' W 076°20'4 8.6
2017-Dec-01 04:00N 36°53' W 076°20'1 1.6
2017-Dec-01 03:26N 36°53' W 076°21'0 0.0
2017-Dec-01 02:59N 36°53' W 076°21'0 0.0
2017-Dec-01 02:29N 36°53' W 076°21'0 0.0
2017-Dec-01 01:41N 36°53' W 076°21'0 0.0
2017-Dec-01 01:20N 36°53' W 076°21'0 0.0
2017-Dec-01 00:59N 36°53' W 076°21'0 0.0
2017-Dec-01 00:29N 36°53' W 076°21'0 0.0
2017-Nov-30 23:59N 36°53' W 076°21'0 0.0
2017-Nov-30 23:26N 36°53' W 076°21'0 0.0
2017-Nov-30 22:59N 36°53' W 076°21'0 0.0
2017-Nov-30 22:29N 36°53' W 076°21'0 0.0
2017-Nov-30 21:59N 36°53' W 076°21'0 0.0
2017-Nov-30 21:08N 36°53' W 076°21'0 0.0
2017-Nov-30 20:35N 36°53' W 076°21'0 0.0
2017-Nov-30 20:29N 36°53' W 076°21'0 0.0
2017-Nov-30 19:56N 36°53' W 076°21'0 0.0
2017-Nov-30 19:23N 36°53' W 076°21'0 0.0
2017-Nov-30 18:59N 36°53' W 076°21'0 0.1
2017-Nov-30 18:29N 36°53' W 076°21'0 0.0
2017-Nov-30 17:56N 36°53' W 076°21'0 0.0
2017-Nov-30 17:26N 36°53' W 076°21'0 0.0
2017-Nov-30 16:53N 36°53' W 076°21'0 0.0
2017-Nov-30 16:29N 36°53' W 076°21'0 0.0
2017-Nov-30 15:59N 36°53' W 076°21'0 0.0
2017-Nov-30 15:29N 36°53' W 076°21'0 0.0
2017-Nov-30 14:59N 36°53' W 076°21'0 0.0
2017-Nov-30 14:29N 36°53' W 076°21'0 0.0
2017-Nov-30 13:59N 36°53' W 076°21'0 0.0
2017-Nov-30 13:26N 36°53' W 076°21'0 0.1
2017-Nov-30 12:59N 36°53' W 076°21'0 0.0
2017-Nov-30 12:26N 36°53' W 076°21'0 0.0
2017-Nov-30 11:56N 36°53' W 076°21'0 0.0
2017-Nov-30 11:29N 36°53' W 076°21'0 0.0
2017-Nov-30 10:59N 36°53' W 076°21'0 0.0
2017-Nov-30 10:29N 36°53' W 076°21'0 0.2
2017-Nov-30 10:00N 36°53' W 076°21'1 2.6
2017-Nov-30 09:30N 36°54' W 076°20'3 5.5
2017-Nov-30 09:00N 36°57' W 076°20'3 7.0
2017-Nov-30 08:30N 36°60' W 076°18'611.1
2017-Nov-30 08:00N 36°60' W 076°11'612.9
2017-Nov-30 07:30N 36°58' W 076°04'510.0
2017-Nov-30 07:00N 36°57' W 075°58'4 8.7
2017-Nov-30 06:30N 36°54' W 075°53'5 9.2
2017-Nov-30 05:58N 36°51' W 075°48'4 9.2
2017-Nov-30 05:30N 36°49' W 075°43'100 6.2
2017-Nov-29 13:18N 38°07' W 074°23'310.9
2017-Nov-29 13:00N 38°10' W 074°23'510.6
2017-Nov-29 12:30N 38°16' W 074°21'510.7
2017-Nov-29 12:00N 38°21' W 074°19'510.9
2017-Nov-29 11:30N 38°26' W 074°17'510.7
2017-Nov-29 11:00N 38°31' W 074°15'510.6
2017-Nov-29 10:30N 38°36' W 074°13'510.7
2017-Nov-29 10:01N 38°41' W 074°11'510.7
2017-Nov-29 09:30N 38°46' W 074°09'510.6
2017-Nov-29 09:00N 38°51' W 074°06'810.6
2017-Nov-29 08:15N 38°59' W 074°03'310.5
2017-Nov-29 07:59N 39°02' W 074°02'3310.6
2017-Nov-29 04:49N 39°34' W 073°54'410.8
2017-Nov-29 04:27N 39°38' W 073°53'510.6
2017-Nov-29 04:00N 39°43' W 073°53'510.7
2017-Nov-29 03:31N 39°48' W 073°52'510.7
2017-Nov-29 03:00N 39°54' W 073°52'510.7
2017-Nov-29 02:30N 39°59' W 073°51'510.7
2017-Nov-29 02:00N 40°04' W 073°50'510.6
2017-Nov-29 01:30N 40°09' W 073°50'5 9.7
2017-Nov-29 01:00N 40°14' W 073°49'5 9.4
2017-Nov-29 00:28N 40°19' W 073°49'4 9.5
2017-Nov-29 00:00N 40°24' W 073°48'4 7.8
2017-Nov-28 23:30N 40°27' W 073°51'5 9.2
2017-Nov-28 23:00N 40°30' W 073°56'611.8
2017-Nov-28 22:30N 40°33' W 074°02'510.0
2017-Nov-28 22:00N 40°38' W 074°03'3 5.6
2017-Nov-28 21:30N 40°39' W 074°07'2 3.0
2017-Nov-28 21:00N 40°39' W 074°09'1 2.3
2017-Nov-28 20:30N 40°41' W 074°08'0 0.9
2017-Nov-28 20:00N 40°41' W 074°09'0 0.0
2017-Nov-28 19:30N 40°41' W 074°09'0 0.0
2017-Nov-28 19:00N 40°41' W 074°09'0 0.0
2017-Nov-28 18:27N 40°41' W 074°09'0 0.0
2017-Nov-28 18:00N 40°41' W 074°09'0 0.0
2017-Nov-28 17:18N 40°41' W 074°09'0 0.0
2017-Nov-28 16:48N 40°41' W 074°09'0 0.0
2017-Nov-28 16:21N 40°41' W 074°09'0 0.0
2017-Nov-28 15:57N 40°41' W 074°09'0 0.0
2017-Nov-28 15:00N 40°41' W 074°09'0 0.0
2017-Nov-28 14:18N 40°41' W 074°09'0 0.0
2017-Nov-28 14:00N 40°41' W 074°09'0 0.0
2017-Nov-28 13:15N 40°41' W 074°09'0 0.0
2017-Nov-28 12:54N 40°41' W 074°09'0 0.0
2017-Nov-28 12:18N 40°41' W 074°09'0 0.0
2017-Nov-28 11:54N 40°41' W 074°09'0 0.0
2017-Nov-28 11:30N 40°41' W 074°09'0 0.0
2017-Nov-28 10:48N 40°41' W 074°09'0 0.0
2017-Nov-28 10:27N 40°41' W 074°09'0 0.0
2017-Nov-28 09:57N 40°41' W 074°09'0 0.0
2017-Nov-28 09:27N 40°41' W 074°09'0 0.0
2017-Nov-28 09:00N 40°41' W 074°09'0 0.0
2017-Nov-28 08:30N 40°41' W 074°09'0 0.0
2017-Nov-28 07:54N 40°41' W 074°09'0 0.0
2017-Nov-28 07:30N 40°41' W 074°09'0 0.0
2017-Nov-28 07:00N 40°41' W 074°09'0 0.0
2017-Nov-28 06:30N 40°41' W 074°09'0 0.0
2017-Nov-28 05:57N 40°41' W 074°09'0 0.0
2017-Nov-28 05:27N 40°41' W 074°09'0 0.0
2017-Nov-28 04:30N 40°41' W 074°09'0 0.0
2017-Nov-28 03:54N 40°41' W 074°09'0 0.0
2017-Nov-28 03:27N 40°41' W 074°09'0 0.0
2017-Nov-28 02:57N 40°41' W 074°09'0 0.0
2017-Nov-28 02:30N 40°41' W 074°09'0 0.0
2017-Nov-28 02:00N 40°41' W 074°09'0 0.0
2017-Nov-28 01:27N 40°41' W 074°09'0 0.0
2017-Nov-28 01:00N 40°41' W 074°09'0 0.0
2017-Nov-28 00:27N 40°41' W 074°09'0 0.0
2017-Nov-27 23:51N 40°41' W 074°09'0 0.0
2017-Nov-27 23:03N 40°41' W 074°09'0 0.0
2017-Nov-27 23:00N 40°41' W 074°09'0 0.0
2017-Nov-27 22:27N 40°41' W 074°09'1 1.3
2017-Nov-27 22:00N 40°41' W 074°08'2 4.0
2017-Nov-27 21:30N 40°39' W 074°08'3 5.1
2017-Nov-27 21:00N 40°39' W 074°05'3 6.0
2017-Nov-27 20:30N 40°37' W 074°03'510.5
2017-Nov-27 20:00N 40°32' W 074°01'611.4
2017-Nov-27 19:29N 40°29' W 073°54'4 8.4
2017-Nov-27 19:00N 40°27' W 073°49'4 7.9
2017-Nov-27 18:28N 40°27' W 073°43'4 9.7
2017-Nov-27 18:00N 40°28' W 073°37'4 8.9
2017-Nov-27 17:30N 40°28' W 073°32'  
Track history (hours):
 
Tides and Currents Weather Stations Pressure Air Temp Water Temp Dewpoint Dewpoint Depression Visibility Wind Speed Wind Dir Waves Ship Positions

Maersk Shanghai

Last reported at 2017-Dec-07 17:10 UTC. Time now 2017-Dec-11 04:22 UTC.
Position N 26°14' W 079°14'.

Length 324 m; draft 10.9 m.

Type: Cargo ship. MMSI: 636017473.

Date/timePositionNaut miles runAvg speedWind from/ knotsBaromVisibWave heightAir tempDewpointWater temp
2017-Dec-07 17:10N 26°14' W 079°14'316.9
2017-Dec-07 17:00N 26°13' W 079°16'816.8
2017-Dec-07 16:30N 26°08' W 079°24'817.0
2017-Dec-07 16:00N 26°04' W 079°33'817.0
2017-Dec-07 15:30N 25°59' W 079°41'917.1
2017-Dec-07 15:00N 25°55' W 079°49'917.6
2017-Dec-07 14:31N 25°50' W 079°57'815.5
2017-Dec-07 14:00N 25°46' W 080°04'4 7.6
2017-Dec-07 13:30N 25°46' W 080°09'1 1.4
2017-Dec-07 12:58N 25°46' W 080°09'0 0.0
2017-Dec-07 12:28N 25°46' W 080°09'0 0.0
2017-Dec-07 11:58N 25°46' W 080°09'0 0.0
2017-Dec-07 11:28N 25°46' W 080°09'0 0.0
2017-Dec-07 10:55N 25°46' W 080°09'0 0.0
2017-Dec-07 10:28N 25°46' W 080°09'0 0.0
2017-Dec-07 09:58N 25°46' W 080°09'0 0.0
2017-Dec-07 09:28N 25°46' W 080°09'0 0.0
2017-Dec-07 08:58N 25°46' W 080°09'0 0.0
2017-Dec-07 08:28N 25°46' W 080°09'0 0.0
2017-Dec-07 07:58N 25°46' W 080°09'0 0.0
2017-Dec-07 07:28N 25°46' W 080°09'0 0.0
2017-Dec-07 06:58N 25°46' W 080°09'0 0.0
2017-Dec-07 06:25N 25°46' W 080°09'0 0.0
2017-Dec-07 05:49N 25°46' W 080°09'0 0.0
2017-Dec-07 05:28N 25°46' W 080°09'0 0.0
2017-Dec-07 04:52N 25°46' W 080°09'0 0.0
2017-Dec-07 04:28N 25°46' W 080°09'0 0.0
2017-Dec-07 03:58N 25°46' W 080°09'0 0.0
2017-Dec-07 03:22N 25°46' W 080°09'0 0.0
2017-Dec-07 02:58N 25°46' W 080°09'0 0.0
2017-Dec-07 02:28N 25°46' W 080°09'0 0.0
2017-Dec-07 01:58N 25°46' W 080°09'0 0.0
2017-Dec-07 01:28N 25°46' W 080°09'0 0.0
2017-Dec-07 00:55N 25°46' W 080°09'0 0.0
2017-Dec-07 00:25N 25°46' W 080°09'0 0.0
2017-Dec-06 23:55N 25°46' W 080°09'0 0.0
2017-Dec-06 23:28N 25°46' W 080°09'0 0.0
2017-Dec-06 22:58N 25°46' W 080°09'0 1.0
2017-Dec-06 22:30N 25°46' W 080°10'1 1.9
2017-Dec-06 22:00N 25°46' W 080°09'3 6.6
2017-Dec-06 21:30N 25°46' W 080°05'3 6.3
2017-Dec-06 21:01N 25°46' W 080°02'  
2017-Dec-04 10:23N 32°08' W 081°08'0 0.1
2017-Dec-04 09:59N 32°08' W 081°08'0 0.0
2017-Dec-04 09:29N 32°08' W 081°08'0 0.0
2017-Dec-04 08:59N 32°08' W 081°08'0 0.0
2017-Dec-04 08:29N 32°08' W 081°08'0 0.0
2017-Dec-04 07:59N 32°08' W 081°08'0 0.0
2017-Dec-04 07:29N 32°08' W 081°08'0 0.0
2017-Dec-04 06:53N 32°08' W 081°08'0 0.0
2017-Dec-04 06:29N 32°08' W 081°08'0 0.0
2017-Dec-04 05:53N 32°08' W 081°08'0 0.0
2017-Dec-04 05:23N 32°08' W 081°08'0 0.0
2017-Dec-04 04:59N 32°08' W 081°08'0 0.0
2017-Dec-04 04:29N 32°08' W 081°08'0 0.0
2017-Dec-04 03:59N 32°08' W 081°08'0 0.0
2017-Dec-04 03:29N 32°08' W 081°08'0 0.0
2017-Dec-04 02:53N 32°08' W 081°08'0 0.0
2017-Dec-04 02:29N 32°08' W 081°08'0 0.0
2017-Dec-04 01:59N 32°08' W 081°08'0 0.0
2017-Dec-04 01:11N 32°08' W 081°08'0 0.1
2017-Dec-04 00:59N 32°08' W 081°08'0 0.0
2017-Dec-04 00:23N 32°08' W 081°08'0 0.0
2017-Dec-03 23:11N 32°08' W 081°08'0 0.0
2017-Dec-03 22:59N 32°08' W 081°08'0 0.1
2017-Dec-03 22:30N 32°08' W 081°08'2 3.9
2017-Dec-03 22:00N 32°06' W 081°07'3 6.7
2017-Dec-03 21:30N 32°05' W 081°03'4 7.5
2017-Dec-03 21:00N 32°05' W 080°59'611.2
2017-Dec-03 20:29N 32°02' W 080°53'612.7
2017-Dec-03 20:00N 31°59' W 080°47'612.0
2017-Dec-03 19:30N 31°57' W 080°40'4 7.9
2017-Dec-03 19:00N 31°57' W 080°36'4 8.0
2017-Dec-03 18:30N 31°57' W 080°31'2 3.4
2017-Dec-03 18:00N 31°56' W 080°30'0 0.0
2017-Dec-03 16:48N 31°56' W 080°30'0 0.0
2017-Dec-03 16:24N 31°56' W 080°30'0 0.0
2017-Dec-03 15:48N 31°56' W 080°30'0 0.0
2017-Dec-03 15:24N 31°56' W 080°30'0 0.0
2017-Dec-03 15:00N 31°56' W 080°30'0 0.0
2017-Dec-03 14:18N 31°56' W 080°30'0 0.0
2017-Dec-03 14:00N 31°56' W 080°30'0 0.0
2017-Dec-03 13:30N 31°56' W 080°30'0 0.1
2017-Dec-03 12:48N 31°56' W 080°30'0 0.9
2017-Dec-03 12:30N 31°55' W 080°29'3 7.1
2017-Dec-03 12:00N 31°56' W 080°25'5 9.3
2017-Dec-03 11:30N 31°58' W 080°20'1012.5
2017-Dec-03 10:41N 32°04' W 080°10'48 2.1
2017-Dec-02 11:14N 32°50' W 079°54'25113.1
2017-Dec-01 16:09N 34°46' W 075°26'816.2
2017-Dec-01 15:40N 34°52' W 075°20'316.2
2017-Dec-01 15:30N 34°54' W 075°18'10214.7
2017-Dec-01 08:34N 36°36' W 075°31'116.7
2017-Dec-01 08:30N 36°37' W 075°32'1215.2
2017-Dec-01 07:43N 36°46' W 075°41'2 9.7
2017-Dec-01 07:30N 36°47' W 075°43'5 9.7
2017-Dec-01 07:01N 36°50' W 075°48'5 9.7
2017-Dec-01 06:30N 36°53' W 075°53'5 9.7
2017-Dec-01 06:00N 36°56' W 075°58'611.1
2017-Dec-01 05:31N 36°58' W 076°04'815.0
2017-Dec-01 04:59N 37°00' W 076°14'612.0
2017-Dec-01 04:29N 36°57' W 076°20'4 8.6
2017-Dec-01 04:00N 36°53' W 076°20'1 1.6
2017-Dec-01 03:26N 36°53' W 076°21'0 0.0
2017-Dec-01 02:59N 36°53' W 076°21'0 0.0
2017-Dec-01 02:29N 36°53' W 076°21'0 0.0
2017-Dec-01 01:41N 36°53' W 076°21'0 0.0
2017-Dec-01 01:20N 36°53' W 076°21'0 0.0
2017-Dec-01 00:59N 36°53' W 076°21'0 0.0
2017-Dec-01 00:29N 36°53' W 076°21'0 0.0
2017-Nov-30 23:59N 36°53' W 076°21'0 0.0
2017-Nov-30 23:26N 36°53' W 076°21'0 0.0
2017-Nov-30 22:59N 36°53' W 076°21'0 0.0
2017-Nov-30 22:29N 36°53' W 076°21'0 0.0
2017-Nov-30 21:59N 36°53' W 076°21'0 0.0
2017-Nov-30 21:08N 36°53' W 076°21'0 0.0
2017-Nov-30 20:35N 36°53' W 076°21'0 0.0
2017-Nov-30 20:29N 36°53' W 076°21'0 0.0
2017-Nov-30 19:56N 36°53' W 076°21'0 0.0
2017-Nov-30 19:23N 36°53' W 076°21'0 0.0
2017-Nov-30 18:59N 36°53' W 076°21'0 0.1
2017-Nov-30 18:29N 36°53' W 076°21'0 0.0
2017-Nov-30 17:56N 36°53' W 076°21'0 0.0
2017-Nov-30 17:26N 36°53' W 076°21'0 0.0
2017-Nov-30 16:53N 36°53' W 076°21'0 0.0
2017-Nov-30 16:29N 36°53' W 076°21'0 0.0
2017-Nov-30 15:59N 36°53' W 076°21'0 0.0
2017-Nov-30 15:29N 36°53' W 076°21'0 0.0
2017-Nov-30 14:59N 36°53' W 076°21'0 0.0
2017-Nov-30 14:29N 36°53' W 076°21'0 0.0
2017-Nov-30 13:59N 36°53' W 076°21'0 0.0
2017-Nov-30 13:26N 36°53' W 076°21'0 0.1
2017-Nov-30 12:59N 36°53' W 076°21'0 0.0
2017-Nov-30 12:26N 36°53' W 076°21'0 0.0
2017-Nov-30 11:56N 36°53' W 076°21'0 0.0
2017-Nov-30 11:29N 36°53' W 076°21'0 0.0
2017-Nov-30 10:59N 36°53' W 076°21'0 0.0
2017-Nov-30 10:29N 36°53' W 076°21'0 0.2
2017-Nov-30 10:00N 36°53' W 076°21'1 2.6
2017-Nov-30 09:30N 36°54' W 076°20'3 5.5
2017-Nov-30 09:00N 36°57' W 076°20'3 7.0
2017-Nov-30 08:30N 36°60' W 076°18'611.1
2017-Nov-30 08:00N 36°60' W 076°11'612.9
2017-Nov-30 07:30N 36°58' W 076°04'510.0
2017-Nov-30 07:00N 36°57' W 075°58'4 8.7
2017-Nov-30 06:30N 36°54' W 075°53'5 9.2
2017-Nov-30 05:58N 36°51' W 075°48'4 9.2
2017-Nov-30 05:30N 36°49' W 075°43'100 6.2
2017-Nov-29 13:18N 38°07' W 074°23'310.9
2017-Nov-29 13:00N 38°10' W 074°23'510.6
2017-Nov-29 12:30N 38°16' W 074°21'510.7
2017-Nov-29 12:00N 38°21' W 074°19'510.9
2017-Nov-29 11:30N 38°26' W 074°17'510.7
2017-Nov-29 11:00N 38°31' W 074°15'510.6
2017-Nov-29 10:30N 38°36' W 074°13'510.7
2017-Nov-29 10:01N 38°41' W 074°11'510.7
2017-Nov-29 09:30N 38°46' W 074°09'510.6
2017-Nov-29 09:00N 38°51' W 074°06'810.6
2017-Nov-29 08:15N 38°59' W 074°03'310.5
2017-Nov-29 07:59N 39°02' W 074°02'3310.6
2017-Nov-29 04:49N 39°34' W 073°54'410.8
2017-Nov-29 04:27N 39°38' W 073°53'510.6
2017-Nov-29 04:00N 39°43' W 073°53'510.7
2017-Nov-29 03:31N 39°48' W 073°52'510.7
2017-Nov-29 03:00N 39°54' W 073°52'510.7
2017-Nov-29 02:30N 39°59' W 073°51'510.7
2017-Nov-29 02:00N 40°04' W 073°50'510.6
2017-Nov-29 01:30N 40°09' W 073°50'5 9.7
2017-Nov-29 01:00N 40°14' W 073°49'5 9.4
2017-Nov-29 00:28N 40°19' W 073°49'4 9.5
2017-Nov-29 00:00N 40°24' W 073°48'4 7.8
2017-Nov-28 23:30N 40°27' W 073°51'5 9.2
2017-Nov-28 23:00N 40°30' W 073°56'611.8
2017-Nov-28 22:30N 40°33' W 074°02'510.0
2017-Nov-28 22:00N 40°38' W 074°03'3 5.6
2017-Nov-28 21:30N 40°39' W 074°07'2 3.0
2017-Nov-28 21:00N 40°39' W 074°09'1 2.3
2017-Nov-28 20:30N 40°41' W 074°08'0 0.9
2017-Nov-28 20:00N 40°41' W 074°09'0 0.0
2017-Nov-28 19:30N 40°41' W 074°09'0 0.0
2017-Nov-28 19:00N 40°41' W 074°09'0 0.0
2017-Nov-28 18:27N 40°41' W 074°09'0 0.0
2017-Nov-28 18:00N 40°41' W 074°09'0 0.0
2017-Nov-28 17:18N 40°41' W 074°09'0 0.0
2017-Nov-28 16:48N 40°41' W 074°09'0 0.0
2017-Nov-28 16:21N 40°41' W 074°09'0 0.0
2017-Nov-28 15:57N 40°41' W 074°09'0 0.0
2017-Nov-28 15:00N 40°41' W 074°09'0 0.0
2017-Nov-28 14:18N 40°41' W 074°09'0 0.0
2017-Nov-28 14:00N 40°41' W 074°09'0 0.0
2017-Nov-28 13:15N 40°41' W 074°09'0 0.0
2017-Nov-28 12:54N 40°41' W 074°09'0 0.0
2017-Nov-28 12:18N 40°41' W 074°09'0 0.0
2017-Nov-28 11:54N 40°41' W 074°09'0 0.0
2017-Nov-28 11:30N 40°41' W 074°09'0 0.0
2017-Nov-28 10:48N 40°41' W 074°09'0 0.0
2017-Nov-28 10:27N 40°41' W 074°09'0 0.0
2017-Nov-28 09:57N 40°41' W 074°09'0 0.0
2017-Nov-28 09:27N 40°41' W 074°09'0 0.0
2017-Nov-28 09:00N 40°41' W 074°09'0 0.0
2017-Nov-28 08:30N 40°41' W 074°09'0 0.0
2017-Nov-28 07:54N 40°41' W 074°09'0 0.0
2017-Nov-28 07:30N 40°41' W 074°09'0 0.0
2017-Nov-28 07:00N 40°41' W 074°09'0 0.0
2017-Nov-28 06:30N 40°41' W 074°09'0 0.0
2017-Nov-28 05:57N 40°41' W 074°09'0 0.0
2017-Nov-28 05:27N 40°41' W 074°09'0 0.0
2017-Nov-28 04:30N 40°41' W 074°09'0 0.0
2017-Nov-28 03:54N 40°41' W 074°09'0 0.0
2017-Nov-28 03:27N 40°41' W 074°09'0 0.0
2017-Nov-28 02:57N 40°41' W 074°09'0 0.0
2017-Nov-28 02:30N 40°41' W 074°09'0 0.0
2017-Nov-28 02:00N 40°41' W 074°09'0 0.0
2017-Nov-28 01:27N 40°41' W 074°09'0 0.0
2017-Nov-28 01:00N 40°41' W 074°09'0 0.0
2017-Nov-28 00:27N 40°41' W 074°09'0 0.0
2017-Nov-27 23:51N 40°41' W 074°09'0 0.0
2017-Nov-27 23:03N 40°41' W 074°09'0 0.0
2017-Nov-27 23:00N 40°41' W 074°09'0 0.0
2017-Nov-27 22:27N 40°41' W 074°09'1 1.3
2017-Nov-27 22:00N 40°41' W 074°08'2 4.0
2017-Nov-27 21:30N 40°39' W 074°08'3 5.1
2017-Nov-27 21:00N 40°39' W 074°05'3 6.0
2017-Nov-27 20:30N 40°37' W 074°03'510.5
2017-Nov-27 20:00N 40°32' W 074°01'611.4
2017-Nov-27 19:29N 40°29' W 073°54'4 8.4
2017-Nov-27 19:00N 40°27' W 073°49'4 7.9
2017-Nov-27 18:28N 40°27' W 073°43'4 9.7
2017-Nov-27 18:00N 40°28' W 073°37'4 8.9
2017-Nov-27 17:30N 40°28' W 073°32'  

Dump ship's entire track history